createdAt,value
2022-08-26T00:02:20.501Z,98329.38
2022-08-26T00:04:50.117Z,98316.09
2022-08-26T00:07:20.670Z,98314.59
2022-08-26T00:09:50.007Z,98308.34
2022-08-26T00:12:19.235Z,98311.00
2022-08-26T00:15:01.033Z,98307.75
2022-08-26T00:17:30.294Z,98301.00
2022-08-26T00:20:01.796Z,98307.84
2022-08-26T00:22:32.891Z,98309.56
2022-08-26T00:25:02.137Z,98307.09
2022-08-26T00:27:34.262Z,98304.19
2022-08-26T00:30:06.929Z,98302.75
2022-08-26T00:32:37.435Z,98307.03
2022-08-26T00:35:08.013Z,98302.97
2022-08-26T00:37:38.418Z,98311.13
2022-08-26T00:40:11.476Z,98308.72
2022-08-26T00:42:40.454Z,98312.38
2022-08-26T00:45:17.249Z,98308.75
2022-08-26T00:47:50.070Z,98306.38
2022-08-26T00:50:24.514Z,98316.47
2022-08-26T00:52:57.446Z,98312.69
2022-08-26T00:55:37.920Z,98317.34
2022-08-26T00:58:08.689Z,98327.47
2022-08-26T01:00:38.349Z,98323.91
2022-08-26T01:03:12.619Z,98328.78
2022-08-26T01:05:42.330Z,98323.75
2022-08-26T01:08:13.750Z,98318.38
2022-08-26T01:10:42.765Z,98317.16
2022-08-26T01:13:15.572Z,98320.50
2022-08-26T01:15:47.792Z,98315.84
2022-08-26T01:18:20.449Z,98312.72
2022-08-26T01:21:00.029Z,98321.88
2022-08-26T01:23:34.016Z,98316.50
2022-08-26T01:26:08.953Z,98311.94
2022-08-26T01:28:51.753Z,98310.22
2022-08-26T01:31:25.612Z,98313.81
2022-08-26T01:34:03.586Z,98316.75
2022-08-26T01:36:33.609Z,98312.00
2022-08-26T01:39:05.857Z,98312.13
2022-08-26T01:41:38.204Z,98317.63
2022-08-26T01:44:10.954Z,98314.84
2022-08-26T01:46:40.445Z,98308.25
2022-08-26T01:49:10.343Z,98312.44
2022-08-26T01:51:40.266Z,98316.69
2022-08-26T01:54:12.075Z,98315.69
2022-08-26T01:56:42.117Z,98314.13
2022-08-26T01:59:16.392Z,98320.41
2022-08-26T02:01:47.062Z,98314.81
2022-08-26T02:04:23.374Z,98316.91
2022-08-26T02:06:54.185Z,98320.66
2022-08-26T02:09:25.924Z,98320.59
2022-08-26T02:11:57.083Z,98327.81
2022-08-26T02:14:30.425Z,98324.25
2022-08-26T02:16:59.973Z,98321.28
2022-08-26T02:19:32.932Z,98323.38
2022-08-26T02:22:05.343Z,98325.09
2022-08-26T02:24:52.577Z,98319.94
2022-08-26T02:27:24.906Z,98326.31
2022-08-26T02:30:00.757Z,98323.59
2022-08-26T02:32:30.710Z,98327.19
2022-08-26T02:35:03.209Z,98327.88
2022-08-26T02:37:33.981Z,98328.13
2022-08-26T02:40:07.351Z,98322.28
2022-08-26T02:42:37.934Z,98317.47
2022-08-26T02:45:08.064Z,98306.72
2022-08-26T02:47:37.875Z,98315.63
2022-08-26T02:50:08.240Z,98314.69
2022-08-26T02:52:37.556Z,98304.88
2022-08-26T02:55:09.590Z,98310.53
2022-08-26T02:57:38.122Z,98315.22
2022-08-26T03:00:11.422Z,98309.97
2022-08-26T03:02:43.169Z,98309.34
2022-08-26T03:05:12.826Z,98312.50
2022-08-26T03:07:42.378Z,98317.88
2022-08-26T03:10:15.057Z,98309.97
2022-08-26T03:12:48.104Z,98310.34
2022-08-26T03:15:18.522Z,98304.84
2022-08-26T03:17:50.251Z,98298.72
2022-08-26T03:20:20.438Z,98301.13
2022-08-26T03:22:51.687Z,98295.63
2022-08-26T03:25:23.066Z,98299.03
2022-08-26T03:27:53.486Z,98302.63
2022-08-26T03:30:45.440Z,98298.94
2022-08-26T03:33:15.734Z,98300.44
2022-08-26T03:35:47.640Z,98301.19
2022-08-26T03:38:21.091Z,98305.88
2022-08-26T03:40:52.983Z,98308.78
2022-08-26T03:43:26.724Z,98308.44
2022-08-26T03:45:57.565Z,98301.03
2022-08-26T03:48:25.411Z,98303.53
2022-08-26T03:50:53.288Z,98302.13
2022-08-26T03:53:21.339Z,98304.00
2022-08-26T03:55:51.763Z,98303.53
2022-08-26T03:58:20.486Z,98308.31
2022-08-26T04:00:49.017Z,98316.91
2022-08-26T04:03:38.446Z,98317.50
2022-08-26T04:06:07.037Z,98310.94
2022-08-26T04:08:34.903Z,98314.97
2022-08-26T04:11:04.300Z,98312.13
2022-08-26T04:13:32.939Z,98314.75
2022-08-26T04:16:00.861Z,98314.94
2022-08-26T04:18:37.017Z,98308.44
2022-08-26T04:21:08.076Z,98315.22
2022-08-26T04:23:47.305Z,98313.03
2022-08-26T04:26:17.477Z,98310.72
2022-08-26T04:28:45.445Z,98312.28
2022-08-26T04:31:14.645Z,98307.59
2022-08-26T04:33:43.772Z,98307.00
2022-08-26T04:36:11.955Z,98304.84
2022-08-26T04:38:40.148Z,98299.72
2022-08-26T04:41:15.546Z,98309.16
2022-08-26T04:43:46.917Z,98306.34
2022-08-26T04:46:17.344Z,98304.84
2022-08-26T04:48:45.801Z,98299.47
2022-08-26T04:51:13.716Z,98297.53
2022-08-26T04:53:41.685Z,98304.13
2022-08-26T04:56:09.882Z,98305.09
2022-08-26T04:58:38.244Z,98311.53
2022-08-26T05:01:08.346Z,98308.44
2022-08-26T05:03:37.366Z,98309.41
2022-08-26T05:06:09.029Z,98318.19
2022-08-26T05:08:39.773Z,98313.50
2022-08-26T05:11:09.798Z,98312.09
2022-08-26T05:13:39.206Z,98306.09
2022-08-26T05:16:11.667Z,98313.69
2022-08-26T05:18:44.668Z,98320.72
2022-08-26T05:21:19.959Z,98318.97
2022-08-26T05:23:49.039Z,98321.38
2022-08-26T05:26:17.374Z,98312.47
2022-08-26T05:28:51.126Z,98315.31
2022-08-26T05:31:31.207Z,98316.47
2022-08-26T05:33:59.913Z,98313.28
2022-08-26T05:36:36.180Z,98315.84
2022-08-26T05:39:10.416Z,98330.19
2022-08-26T05:41:40.974Z,98321.63
2022-08-26T05:44:14.091Z,98321.16
2022-08-26T05:46:44.664Z,98330.69
2022-08-26T05:49:13.837Z,98326.38
2022-08-26T05:51:47.582Z,98335.22
2022-08-26T05:54:22.003Z,98339.63
2022-08-26T05:56:50.859Z,98331.13
2022-08-26T05:59:24.514Z,98339.78
2022-08-26T06:01:55.577Z,98337.34
2022-08-26T06:04:27.569Z,98343.94
2022-08-26T06:06:56.447Z,98339.72
2022-08-26T06:09:24.517Z,98338.19
2022-08-26T06:11:52.756Z,98344.00
2022-08-26T06:14:21.592Z,98352.38
2022-08-26T06:16:49.769Z,98352.06
2022-08-26T06:19:20.028Z,98345.84
2022-08-26T06:21:54.059Z,98353.28
2022-08-26T06:24:40.127Z,98353.16
2022-08-26T06:27:11.305Z,98353.34
2022-08-26T06:29:39.367Z,98354.94
2022-08-26T06:32:07.433Z,98356.06
2022-08-26T06:34:38.530Z,98357.13
2022-08-26T06:37:08.872Z,98358.91
2022-08-26T06:39:40.195Z,98355.63
2022-08-26T06:42:09.359Z,98359.84
2022-08-26T06:44:39.088Z,98360.75
2022-08-26T06:47:09.172Z,98361.28
2022-08-26T06:49:38.460Z,98363.44
2022-08-26T06:52:07.827Z,98366.94
2022-08-26T06:54:37.036Z,98357.81
2022-08-26T06:57:08.973Z,98368.13
2022-08-26T06:59:36.931Z,98361.38
2022-08-26T07:02:06.113Z,98357.69
2022-08-26T07:04:36.228Z,98360.72
2022-08-26T07:07:05.482Z,98359.56
2022-08-26T07:09:35.289Z,98351.69
2022-08-26T07:12:06.819Z,98359.59
2022-08-26T07:14:35.875Z,98363.72
2022-08-26T07:17:03.755Z,98359.25
2022-08-26T07:19:31.943Z,98365.50
2022-08-26T07:22:01.875Z,98364.28
2022-08-26T07:24:32.180Z,98363.44
2022-08-26T07:27:02.808Z,98362.38
2022-08-26T07:29:31.257Z,98355.53
2022-08-26T07:31:59.670Z,98364.69
2022-08-26T07:34:28.182Z,98365.09
2022-08-26T07:36:57.071Z,98370.03
2022-08-26T07:39:28.675Z,98365.09
2022-08-26T07:42:01.677Z,98364.06
2022-08-26T07:44:36.308Z,98380.47
2022-08-26T07:47:10.558Z,98371.31
2022-08-26T07:49:52.967Z,98370.25
2022-08-26T07:52:26.159Z,98375.69
2022-08-26T07:54:54.850Z,98369.25
2022-08-26T07:57:24.423Z,98373.59
2022-08-26T07:59:55.118Z,98373.34
2022-08-26T08:02:23.994Z,98380.81
2022-08-26T08:04:52.738Z,98372.91
2022-08-26T08:07:21.375Z,98383.19
2022-08-26T08:10:11.469Z,98381.03
2022-08-26T08:12:42.397Z,98374.63
2022-08-26T08:15:13.277Z,98377.75
2022-08-26T08:17:47.140Z,98381.38
2022-08-26T08:20:23.078Z,98373.97
2022-08-26T08:22:54.141Z,98371.59
2022-08-26T08:25:23.202Z,98375.84
2022-08-26T08:27:52.613Z,98371.75
2022-08-26T08:30:23.176Z,98377.41
2022-08-26T08:32:52.174Z,98373.28
2022-08-26T08:35:23.601Z,98371.41
2022-08-26T08:37:54.419Z,98370.56
2022-08-26T08:40:27.655Z,98370.84
2022-08-26T08:43:03.793Z,98359.03
2022-08-26T08:45:37.875Z,98359.13
2022-08-26T08:48:21.341Z,98354.53
2022-08-26T08:51:04.275Z,98363.53
2022-08-26T08:53:36.410Z,98358.59
2022-08-26T08:56:13.163Z,98360.44
2022-08-26T08:58:53.565Z,98355.28
2022-08-26T09:01:31.446Z,98357.44
2022-08-26T09:04:21.328Z,98354.31
2022-08-26T09:06:53.868Z,98355.91
2022-08-26T09:09:25.034Z,98334.44
2022-08-26T09:11:54.320Z,98344.00
2022-08-26T09:14:24.054Z,98347.34
2022-08-26T09:17:04.961Z,98343.00
2022-08-26T09:19:42.463Z,98347.22
2022-08-26T09:22:26.873Z,98343.09
2022-08-26T09:24:55.210Z,98331.91
2022-08-26T09:27:39.044Z,98342.56
2022-08-26T09:30:11.543Z,98325.53
2022-08-26T09:32:40.195Z,98332.53
2022-08-26T09:35:24.552Z,98316.25
2022-08-26T09:37:53.007Z,98317.84
2022-08-26T09:40:27.572Z,98318.38
2022-08-26T09:43:09.801Z,98314.97
2022-08-26T09:45:49.352Z,98310.16
2022-08-26T09:48:28.319Z,98305.78
2022-08-26T09:51:00.574Z,98298.00
2022-08-26T09:53:31.557Z,98287.69
2022-08-26T09:56:16.907Z,98286.88
2022-08-26T09:58:48.631Z,98274.72
2022-08-26T10:01:30.076Z,98270.03
2022-08-26T10:04:07.639Z,98265.94
2022-08-26T10:06:39.897Z,98263.19
2022-08-26T10:09:37.269Z,98274.66
2022-08-26T10:12:11.482Z,98269.25
2022-08-26T10:17:24.570Z,98257.56
2022-08-26T10:19:57.975Z,98252.97
2022-08-26T10:22:31.411Z,98246.28
2022-08-26T10:25:04.747Z,98250.31
2022-08-26T10:27:41.465Z,98241.72
2022-08-26T10:30:21.811Z,98246.00
2022-08-26T10:32:56.767Z,98250.34
2022-08-26T10:35:26.985Z,98251.63
2022-08-26T10:37:57.804Z,98244.56
2022-08-26T10:40:28.460Z,98239.34
2022-08-26T10:43:07.223Z,98241.22
2022-08-26T10:45:42.968Z,98243.38
2022-08-26T10:48:18.365Z,98240.84
2022-08-26T10:50:49.183Z,98234.16
2022-08-26T10:53:24.911Z,98228.06
2022-08-26T10:56:00.526Z,98225.28
2022-08-26T10:58:39.139Z,98221.88
2022-08-26T11:01:33.093Z,98215.75
2022-08-26T11:04:12.455Z,98214.38
2022-08-26T11:06:41.941Z,98210.03
2022-08-26T11:09:13.203Z,98211.41
2022-08-26T11:11:51.865Z,98207.25
2022-08-26T11:14:53.629Z,98197.13
2022-08-26T11:17:57.376Z,98195.41
2022-08-26T11:20:41.531Z,98201.19
2022-08-26T11:23:50.332Z,98198.47
2022-08-26T11:26:35.831Z,98203.44
2022-08-26T11:29:13.498Z,98200.59
2022-08-26T11:31:58.552Z,98198.81
2022-08-26T11:34:55.163Z,98181.00
2022-08-26T11:37:32.965Z,98186.34
2022-08-26T11:40:04.558Z,98182.69
2022-08-26T11:42:40.920Z,98182.75
2022-08-26T11:45:20.065Z,98178.41
2022-08-26T11:47:49.366Z,98178.53
2022-08-26T11:50:20.667Z,98168.88
2022-08-26T11:52:54.410Z,98163.41
2022-08-26T11:55:24.074Z,98175.38
2022-08-26T11:57:55.495Z,98179.16
2022-08-26T12:00:25.896Z,98175.31
2022-08-26T12:02:57.054Z,98189.75
2022-08-26T12:05:31.419Z,98185.88
2022-08-26T12:08:08.019Z,98183.50
2022-08-26T12:10:37.739Z,98186.41
2022-08-26T12:13:10.557Z,98180.88
2022-08-26T12:15:38.480Z,98172.16
2022-08-26T12:18:28.694Z,98177.66
2022-08-26T12:21:03.172Z,98169.25
2022-08-26T12:23:45.987Z,98172.16
2022-08-26T12:26:23.934Z,98167.25
2022-08-26T12:28:57.520Z,98169.25
2022-08-26T12:31:31.456Z,98171.19
2022-08-26T12:34:02.435Z,98166.28
2022-08-26T12:36:33.283Z,98160.13
2022-08-26T12:39:11.147Z,98166.38
2022-08-26T12:41:48.552Z,98157.34
2022-08-26T12:44:54.324Z,98158.97
2022-08-26T12:47:41.888Z,98148.88
2022-08-26T12:50:19.066Z,98148.78
2022-08-26T12:52:56.504Z,98151.25
2022-08-26T12:55:36.371Z,98151.78
2022-08-26T12:58:15.078Z,98151.91
2022-08-26T13:00:45.220Z,98143.63
2022-08-26T13:03:38.264Z,98131.81
2022-08-26T13:06:18.451Z,98134.28
2022-08-26T13:08:47.533Z,98127.38
2022-08-26T13:11:20.292Z,98130.44
2022-08-26T13:13:51.621Z,98134.53
2022-08-26T13:16:20.528Z,98119.47
2022-08-26T13:18:49.895Z,98121.53
2022-08-26T13:21:20.530Z,98114.25
2022-08-26T13:23:51.112Z,98121.00
2022-08-26T13:26:21.475Z,98111.72
2022-08-26T13:28:59.158Z,98117.28
2022-08-26T13:31:32.411Z,98109.41
2022-08-26T13:34:07.935Z,98119.50
2022-08-26T13:36:35.966Z,98123.38
2022-08-26T13:39:08.490Z,98120.50
2022-08-26T13:41:38.230Z,98117.19
2022-08-26T13:44:08.265Z,98121.66
2022-08-26T13:46:39.471Z,98118.88
2022-08-26T13:49:08.207Z,98125.13
2022-08-26T13:51:41.712Z,98124.78
2022-08-26T13:54:10.224Z,98123.00
2022-08-26T13:56:39.622Z,98115.13
2022-08-26T13:59:07.880Z,98119.03
2022-08-26T14:01:37.911Z,98113.84
2022-08-26T14:04:05.829Z,98108.94
2022-08-26T14:06:36.657Z,98103.03
2022-08-26T14:09:06.272Z,98105.38
2022-08-26T14:11:50.618Z,98091.41
2022-08-26T14:14:26.874Z,98094.66
2022-08-26T14:16:59.226Z,98099.78
2022-08-26T14:19:29.612Z,98094.41
2022-08-26T14:22:01.749Z,98088.06
2022-08-26T14:24:29.938Z,98088.34
2022-08-26T14:26:58.518Z,98093.88
2022-08-26T14:29:27.835Z,98086.72
2022-08-26T14:31:58.690Z,98094.88
2022-08-26T14:34:29.675Z,98094.00
2022-08-26T14:36:57.715Z,98082.63
2022-08-26T14:39:37.377Z,98085.22
2022-08-26T14:42:05.703Z,98085.31
2022-08-26T14:44:35.464Z,98092.75
2022-08-26T14:47:07.875Z,98083.41
2022-08-26T14:49:37.771Z,98092.13
2022-08-26T14:52:08.535Z,98089.75
2022-08-26T14:54:36.892Z,98093.06
2022-08-26T14:57:09.642Z,98091.28
2022-08-26T14:59:41.655Z,98087.72
2022-08-26T15:02:13.982Z,98085.47
2022-08-26T15:04:58.742Z,98081.00
2022-08-26T15:07:29.205Z,98076.47
2022-08-26T15:09:59.213Z,98074.47
2022-08-26T15:12:27.892Z,98077.41
2022-08-26T15:14:57.192Z,98076.63
2022-08-26T15:17:25.275Z,98071.81
2022-08-26T15:19:53.464Z,98079.28
2022-08-26T15:22:21.614Z,98082.19
2022-08-26T15:24:51.828Z,98084.97
2022-08-26T15:27:22.277Z,98078.31
2022-08-26T15:29:50.616Z,98085.22
2022-08-26T15:32:20.839Z,98087.69
2022-08-26T15:34:49.971Z,98087.75
2022-08-26T15:37:20.605Z,98087.19
2022-08-26T15:39:49.137Z,98089.41
2022-08-26T15:42:17.211Z,98078.03
2022-08-26T15:44:45.696Z,98084.31
2022-08-26T15:47:14.058Z,98086.47
2022-08-26T15:49:43.502Z,98100.81
2022-08-26T15:52:11.888Z,98125.41
2022-08-26T15:54:39.935Z,98112.56
2022-08-26T15:57:11.460Z,98111.09
2022-08-26T15:59:43.178Z,98132.78
2022-08-26T16:02:11.384Z,98161.34
2022-08-26T16:04:39.674Z,98161.09
2022-08-26T16:07:09.201Z,98182.72
2022-08-26T16:09:37.469Z,98177.19
2022-08-26T16:12:05.938Z,98194.88
2022-08-26T16:14:34.515Z,98196.38
2022-08-26T16:17:02.499Z,98198.16
2022-08-26T16:19:30.571Z,98211.00
2022-08-26T16:21:58.532Z,98214.50
2022-08-26T16:24:30.550Z,98210.97
2022-08-26T16:26:59.081Z,98227.63
2022-08-26T16:29:27.365Z,98249.16
2022-08-26T16:31:57.595Z,98267.41
2022-08-26T16:34:25.617Z,98266.59
2022-08-26T16:36:53.666Z,98262.69
2022-08-26T16:39:21.699Z,98257.81
2022-08-26T16:41:51.544Z,98264.84
2022-08-26T16:44:19.573Z,98269.41
2022-08-26T16:46:48.036Z,98266.13
2022-08-26T16:49:19.583Z,98270.59
2022-08-26T16:51:50.593Z,98258.00
2022-08-26T16:54:18.862Z,98254.25
2022-08-26T16:56:46.830Z,98280.94
2022-08-26T16:59:16.161Z,98292.56
2022-08-26T17:01:44.206Z,98283.16
2022-08-26T17:04:12.456Z,98267.16
2022-08-26T17:06:41.256Z,98271.16
2022-08-26T17:09:09.779Z,98259.28
2022-08-26T17:11:37.962Z,98242.38
2022-08-26T17:14:08.332Z,98237.25
2022-08-26T17:16:38.778Z,98228.19
2022-08-26T17:19:09.155Z,98216.56
2022-08-26T17:21:38.170Z,98219.88
2022-08-26T17:24:07.259Z,98213.19
2022-08-26T17:26:37.936Z,98210.63
2022-08-26T17:29:07.289Z,98214.19
2022-08-26T17:31:35.365Z,98206.03
2022-08-26T17:34:11.151Z,98208.06
2022-08-26T17:36:40.848Z,98217.34
2022-08-26T17:39:11.596Z,98222.88
2022-08-26T17:41:39.569Z,98215.50
2022-08-26T17:44:08.082Z,98227.66
2022-08-26T17:46:38.429Z,98228.03
2022-08-26T17:49:08.369Z,98225.03
2022-08-26T17:51:36.369Z,98227.94
2022-08-26T17:54:04.688Z,98222.25
2022-08-26T17:56:32.571Z,98222.28
2022-08-26T17:59:02.350Z,98211.50
2022-08-26T18:01:34.789Z,98203.19
2022-08-26T18:04:04.622Z,98205.50
2022-08-26T18:06:35.686Z,98192.72
2022-08-26T18:09:04.424Z,98187.81
2022-08-26T18:11:32.819Z,98184.53
2022-08-26T18:14:01.865Z,98191.81
2022-08-26T18:16:32.319Z,98194.72
2022-08-26T18:19:02.200Z,98206.00
2022-08-26T18:21:30.378Z,98223.56
2022-08-26T18:24:00.194Z,98234.88
2022-08-26T18:26:31.111Z,98258.59
2022-08-26T18:28:59.946Z,98275.41
2022-08-26T18:31:28.044Z,98300.38
2022-08-26T18:33:56.479Z,98333.63
2022-08-26T18:36:26.170Z,98362.91
2022-08-26T18:38:57.326Z,98362.72
2022-08-26T18:41:28.800Z,98370.09
2022-08-26T18:43:57.173Z,98365.63
2022-08-26T18:46:27.938Z,98362.91
2022-08-26T18:48:57.088Z,98350.09
2022-08-26T18:51:27.863Z,98362.81
2022-08-26T18:53:55.759Z,98369.53
2022-08-26T18:56:29.073Z,98361.84
2022-08-26T18:58:59.881Z,98368.34
2022-08-26T19:01:29.716Z,98359.69
2022-08-26T19:03:58.293Z,98349.50
2022-08-26T19:06:27.036Z,98367.22
2022-08-26T19:08:55.788Z,98358.78
2022-08-26T19:11:31.610Z,98358.88
2022-08-26T19:14:06.414Z,98355.72
2022-08-26T19:16:34.681Z,98359.69
2022-08-26T19:19:02.831Z,98365.06
2022-08-26T19:21:34.524Z,98357.13
2022-08-26T19:24:09.275Z,98351.69
2022-08-26T19:26:38.884Z,98358.03
2022-08-26T19:29:08.278Z,98363.13
2022-08-26T19:31:36.461Z,98374.66
2022-08-26T19:34:05.322Z,98370.97
2022-08-26T19:36:34.229Z,98374.88
2022-08-26T19:39:05.431Z,98365.44
2022-08-26T19:41:38.004Z,98363.84
2022-08-26T19:44:10.142Z,98356.75
2022-08-26T19:49:11.812Z,98360.84
2022-08-26T19:51:39.882Z,98355.91
2022-08-26T19:54:07.822Z,98370.56
2022-08-26T19:56:36.554Z,98363.16
2022-08-26T19:59:04.598Z,98371.59
2022-08-26T20:01:33.855Z,98364.81
2022-08-26T20:04:04.849Z,98382.06
2022-08-26T20:06:32.810Z,98381.31
2022-08-26T20:09:00.679Z,98378.72
2022-08-26T20:11:29.379Z,98383.81
2022-08-26T20:13:59.692Z,98381.97
2022-08-26T20:16:27.688Z,98395.81
2022-08-26T20:19:14.338Z,98390.56
2022-08-26T20:21:42.947Z,98379.09
2022-08-26T20:24:13.865Z,98370.38
2022-08-26T20:26:44.063Z,98377.09
2022-08-26T20:29:13.892Z,98366.22
2022-08-26T20:31:43.991Z,98358.66
2022-08-26T20:34:18.939Z,98354.97
2022-08-26T20:36:48.475Z,98355.16
2022-08-26T20:39:17.595Z,98362.44
2022-08-26T20:41:45.678Z,98363.31
2022-08-26T20:44:16.682Z,98371.47
2022-08-26T20:46:44.847Z,98370.63
2022-08-26T20:49:13.233Z,98372.06
2022-08-26T20:51:43.812Z,98381.69
2022-08-26T20:54:13.076Z,98376.47
2022-08-26T20:56:41.422Z,98381.38
2022-08-26T20:59:09.665Z,98369.94
2022-08-26T21:01:42.447Z,98373.59
2022-08-26T21:04:13.010Z,98383.56
2022-08-26T21:06:52.112Z,98386.22
2022-08-26T21:09:20.667Z,98395.81
2022-08-26T21:11:49.907Z,98392.91
2022-08-26T21:14:19.013Z,98400.34
2022-08-26T21:16:47.789Z,98406.44
2022-08-26T21:19:18.571Z,98397.75
2022-08-26T21:21:49.333Z,98399.50
2022-08-26T21:24:17.575Z,98398.00
2022-08-26T21:26:45.593Z,98399.91
2022-08-26T21:29:14.174Z,98399.81
2022-08-26T21:31:46.372Z,98396.91
2022-08-26T21:34:15.310Z,98397.38
2022-08-26T21:36:43.294Z,98397.38
2022-08-26T21:39:12.895Z,98397.91
2022-08-26T21:41:42.223Z,98398.63
2022-08-26T21:44:14.225Z,98386.59
2022-08-26T21:46:46.722Z,98402.22
2022-08-26T21:49:16.704Z,98406.50
2022-08-26T21:51:46.753Z,98415.03
2022-08-26T21:54:17.416Z,98418.84
2022-08-26T21:56:47.149Z,98408.38
2022-08-26T21:59:17.543Z,98399.25
2022-08-26T22:01:48.104Z,98397.91
2022-08-26T22:04:18.801Z,98395.34
2022-08-26T22:06:48.757Z,98397.69
2022-08-26T22:09:19.848Z,98399.00
2022-08-26T22:11:48.477Z,98401.09
2022-08-26T22:14:21.971Z,98399.38
2022-08-26T22:16:51.056Z,98396.19
2022-08-26T22:19:20.011Z,98400.34
2022-08-26T22:21:50.337Z,98395.34
2022-08-26T22:24:24.686Z,98395.22
2022-08-26T22:26:52.999Z,98403.66
2022-08-26T22:29:21.015Z,98395.44
2022-08-26T22:31:51.410Z,98407.00
2022-08-26T22:34:21.065Z,98409.50
2022-08-26T22:36:50.377Z,98417.47
2022-08-26T22:39:25.341Z,98422.84
2022-08-26T22:41:54.125Z,98426.28
2022-08-26T22:44:23.154Z,98429.25
2022-08-26T22:46:54.240Z,98431.88
2022-08-26T22:49:22.559Z,98433.34
2022-08-26T22:51:51.179Z,98439.38
2022-08-26T22:54:20.352Z,98437.41
2022-08-26T22:56:48.622Z,98443.06
2022-08-26T22:59:16.775Z,98437.28
2022-08-26T23:01:46.393Z,98441.09
2022-08-26T23:04:14.547Z,98428.84
2022-08-26T23:06:47.541Z,98436.91
2022-08-26T23:09:20.078Z,98436.09
2022-08-26T23:11:49.895Z,98433.75
2022-08-26T23:14:20.193Z,98434.88
2022-08-26T23:16:48.497Z,98430.38
2022-08-26T23:19:18.607Z,98432.28
2022-08-26T23:21:46.790Z,98431.03
2022-08-26T23:24:15.080Z,98430.75
2022-08-26T23:26:45.506Z,98427.97
2022-08-26T23:29:15.531Z,98417.84
2022-08-26T23:31:46.013Z,98410.97
2022-08-26T23:34:36.084Z,98410.09
2022-08-26T23:37:06.213Z,98409.31
2022-08-26T23:39:38.135Z,98408.03
2022-08-26T23:42:10.826Z,98404.72
2022-08-26T23:44:38.835Z,98398.50
2022-08-26T23:47:07.409Z,98399.22
2022-08-26T23:49:36.606Z,98398.94
2022-08-26T23:52:23.386Z,98400.97
2022-08-26T23:54:52.360Z,98399.75
2022-08-26T23:57:23.959Z,98399.31
2022-08-26T23:59:52.396Z,98396.06
